Time;durP1;ratioP1;P1;durP2;ratioP2;P2;SDS_P1;SDS_P2;PMS_P1;PMS_P2;Temp;Humidity;BMP_temperature;BMP_pressure;BME280_temperature;BME280_humidity;BME280_pressure;Samples;Min_cycle;Max_cycle;Signal;HPM_P1;HPM_P2
2021/07/02 00:02:12;;;;;;;3.50;2.67;;;;;;;14.09;95.52;101809.19;4989770;28;20729;-60
2021/07/02 00:04:37;;;;;;;8.00;3.08;;;;;;;14.09;95.72;101817.22;4986288;28;20998;-59
2021/07/02 00:07:03;;;;;;;5.60;3.25;;;;;;;14.09;95.56;101817.22;4983118;28;20109;-60
2021/07/02 00:09:29;;;;;;;8.70;3.38;;;;;;;14.06;95.50;101817.38;4986340;28;20038;-61
2021/07/02 00:11:54;;;;;;;8.82;3.40;;;;;;;14.05;95.85;101807.56;4995423;28;20039;-60
2021/07/02 00:14:20;;;;;;;7.85;3.35;;;;;;;14.06;96.10;101803.09;4987605;28;20034;-60
2021/07/02 00:16:45;;;;;;;6.60;3.35;;;;;;;14.07;95.55;101816.44;4992610;28;20141;-60
2021/07/02 00:19:10;;;;;;;6.28;2.95;;;;;;;14.08;95.78;101810.13;4981094;28;20081;-59
2021/07/02 00:21:36;;;;;;;6.93;3.20;;;;;;;14.09;95.58;101811.88;4989064;28;20368;-60
2021/07/02 00:24:01;;;;;;;6.25;3.25;;;;;;;14.12;95.47;101816.19;4989370;28;20044;-60
2021/07/02 00:26:27;;;;;;;6.60;3.10;;;;;;;14.11;96.33;101810.88;4981703;28;20045;-60
2021/07/02 00:28:52;;;;;;;7.55;3.20;;;;;;;14.10;96.46;101812.72;4997412;28;20030;-60
2021/07/02 00:31:18;;;;;;;9.68;3.50;;;;;;;14.09;96.17;101811.88;4987403;28;20213;-61
2021/07/02 00:33:43;;;;;;;7.53;3.50;;;;;;;14.09;96.55;101810.97;4989423;28;20383;-59
2021/07/02 00:36:09;;;;;;;8.30;3.67;;;;;;;14.08;96.48;101810.13;4988521;28;20115;-59
2021/07/02 00:38:34;;;;;;;11.00;3.75;;;;;;;14.06;96.73;101811.16;4986660;28;20352;-59
2021/07/02 00:40:59;;;;;;;6.50;3.35;;;;;;;14.05;96.73;101810.25;4983840;28;20566;-59
2021/07/02 00:43:25;;;;;;;7.95;3.65;;;;;;;14.05;97.02;101801.34;4988648;28;20112;-60
2021/07/02 00:45:50;;;;;;;9.15;3.40;;;;;;;14.04;97.11;101803.16;4996238;28;20109;-59
2021/07/02 00:48:16;;;;;;;9.48;3.85;;;;;;;14.04;96.73;101811.19;4982987;28;20065;-59
2021/07/02 00:50:43;;;;;;;10.30;3.80;;;;;;;14.04;96.81;101810.34;4992252;28;20026;-60
2021/07/02 00:53:09;;;;;;;6.63;3.70;;;;;;;14.03;96.83;101809.47;4985546;28;20048;-60
2021/07/02 00:55:35;;;;;;;9.10;4.45;;;;;;;14.01;97.14;101811.38;4987072;28;20285;-59
2021/07/02 00:58:00;;;;;;;7.60;4.00;;;;;;;14.02;97.45;101806.88;4987127;28;20029;-60
2021/07/02 01:00:25;;;;;;;8.32;4.30;;;;;;;14.02;97.59;101804.19;4986904;28;20725;-61
2021/07/02 01:02:51;;;;;;;10.57;4.78;;;;;;;14.01;97.44;101806.00;4984916;28;20041;-60
2021/07/02 01:05:16;;;;;;;7.88;4.40;;;;;;;14.01;97.66;101800.66;4983753;28;20383;-60
2021/07/02 01:07:43;;;;;;;9.05;5.07;;;;;;;13.99;97.87;101797.16;4985870;28;20127;-59
2021/07/02 01:10:10;;;;;;;10.60;5.43;;;;;;;14.00;97.72;101796.22;4984266;28;20041;-60
2021/07/02 01:12:36;;;;;;;11.07;5.63;;;;;;;13.98;98.40;101800.78;4986579;28;20289;-60
2021/07/02 01:15:01;;;;;;;10.68;5.53;;;;;;;13.97;98.75;101799.03;4987479;28;20335;-60
2021/07/02 01:17:26;;;;;;;8.68;5.95;;;;;;;13.96;99.32;101799.97;4987626;28;20037;-60
2021/07/02 01:19:53;;;;;;;12.55;6.80;;;;;;;13.95;99.12;101797.38;4992044;28;20030;-60
2021/07/02 01:22:21;;;;;;;14.70;7.33;;;;;;;13.94;99.13;101801.91;4987597;28;20022;-59
2021/07/02 01:24:47;;;;;;;13.37;6.70;;;;;;;13.94;99.09;101788.47;4991647;28;20283;-59
2021/07/02 01:27:13;;;;;;;21.08;6.88;;;;;;;13.96;99.08;101796.44;4986154;28;20292;-60
2021/07/02 01:29:38;;;;;;;17.80;8.40;;;;;;;13.95;99.09;101792.88;4984113;28;20050;-60
2021/07/02 01:32:04;;;;;;;17.17;8.30;;;;;;;13.94;99.24;101793.84;4987019;28;20190;-59
2021/07/02 01:34:30;;;;;;;17.65;9.55;;;;;;;13.92;99.24;101793.03;4994163;28;20059;-60
2021/07/02 01:36:55;;;;;;;19.48;9.55;;;;;;;13.90;99.71;101790.44;4999085;28;20055;-59
2021/07/02 01:39:20;;;;;;;15.55;7.90;;;;;;;13.88;99.78;101792.31;4990838;28;20932;-60
2021/07/02 01:41:46;;;;;;;13.75;7.65;;;;;;;13.88;99.84;101788.75;4999228;28;20052;-60
2021/07/02 01:44:11;;;;;;;15.52;9.05;;;;;;;13.87;99.60;101789.72;4983944;28;20038;-59
2021/07/02 01:46:38;;;;;;;10.23;6.35;;;;;;;13.87;99.83;101781.69;4989183;28;20021;-60
2021/07/02 01:49:03;;;;;;;8.43;5.27;;;;;;;13.87;99.59;101774.50;4990876;28;20117;-59
2021/07/02 01:51:29;;;;;;;8.13;4.28;;;;;;;13.85;99.74;101779.06;4993469;28;20388;-59
2021/07/02 01:53:54;;;;;;;9.10;4.20;;;;;;;13.84;99.61;101779.13;4994295;28;20116;-60
2021/07/02 01:56:20;;;;;;;5.75;3.60;;;;;;;13.83;100.00;101774.72;4990763;28;20136;-60
2021/07/02 01:58:45;;;;;;;5.88;3.30;;;;;;;13.81;99.82;101776.59;4998446;28;20513;-60
2021/07/02 02:01:10;;;;;;;7.30;3.30;;;;;;;13.80;99.89;101773.06;4987135;28;20021;-59
2021/07/02 02:03:36;;;;;;;6.72;3.30;;;;;;;13.79;100.00;101773.16;4987408;28;20124;-59
2021/07/02 02:06:01;;;;;;;4.32;3.22;;;;;;;13.78;100.00;101772.25;4993257;28;20395;-58
2021/07/02 02:08:27;;;;;;;9.23;3.72;;;;;;;13.77;100.00;101774.09;4995080;28;20501;-59
2021/07/02 02:10:52;;;;;;;4.78;3.47;;;;;;;13.77;100.00;101776.75;4991128;28;20550;-59
2021/07/02 02:13:17;;;;;;;5.68;3.40;;;;;;;13.79;100.00;101770.47;4993815;28;20581;-59
2021/07/02 02:15:43;;;;;;;5.22;3.50;;;;;;;13.76;100.00;101775.03;4995628;28;20041;-59
2021/07/02 02:18:08;;;;;;;4.55;3.08;;;;;;;13.76;100.00;101780.38;4981963;28;20115;-60
2021/07/02 02:20:33;;;;;;;7.35;3.92;;;;;;;13.79;100.00;101778.50;4986204;28;20478;-60
2021/07/02 02:22:59;;;;;;;8.40;3.92;;;;;;;13.76;100.00;101776.81;4992645;28;20064;-59
2021/07/02 02:25:24;;;;;;;4.80;4.40;;;;;;;13.76;100.00;101779.50;4992202;28;20034;-59
2021/07/02 02:27:50;;;;;;;6.18;4.57;;;;;;;13.76;100.00;101769.66;4995304;28;20777;-59
2021/07/02 02:30:16;;;;;;;11.57;5.65;;;;;;;13.77;100.00;101771.41;4990715;28;20037;-60
2021/07/02 02:32:41;;;;;;;8.05;5.47;;;;;;;13.76;100.00;101775.03;4990617;28;20014;-59
2021/07/02 02:35:08;;;;;;;7.35;5.57;;;;;;;13.76;100.00;101772.34;4986210;28;20052;-60
2021/07/02 02:37:34;;;;;;;11.10;6.60;;;;;;;13.76;100.00;101775.03;4991648;28;20088;-60
2021/07/02 02:40:00;;;;;;;11.25;6.75;;;;;;;13.78;100.00;101769.56;4990250;28;20644;-59
2021/07/02 02:42:26;;;;;;;9.70;6.83;;;;;;;13.78;100.00;101774.94;4993265;28;20505;-60
2021/07/02 02:44:51;;;;;;;8.90;7.15;;;;;;;13.77;100.00;101766.03;4981321;28;20755;-59
2021/07/02 02:47:16;;;;;;;10.40;7.25;;;;;;;13.76;100.00;101758.94;4982411;28;20038;-60
2021/07/02 02:49:42;;;;;;;14.43;7.93;;;;;;;13.79;100.00;101770.47;4993463;28;20117;-60
2021/07/02 02:52:07;;;;;;;10.05;7.07;;;;;;;13.76;100.00;101760.72;4992031;28;20032;-60
2021/07/02 02:54:32;;;;;;;12.07;7.75;;;;;;;13.76;100.00;101766.97;4996096;28;20030;-58
2021/07/02 02:57:04;;;;;;;11.52;7.90;;;;;;;13.74;100.00;101763.50;4989839;28;20527;-59
2021/07/02 02:59:34;;;;;;;11.10;7.73;;;;;;;13.74;100.00;101770.69;4993207;28;20068;-59
2021/07/02 03:01:59;;;;;;;10.90;8.03;;;;;;;13.74;100.00;101768.00;4990421;28;20375;-58
2021/07/02 03:04:25;;;;;;;12.18;8.07;;;;;;;13.74;100.00;101765.31;4992239;28;20391;-59
2021/07/02 03:06:51;;;;;;;12.27;7.80;;;;;;;13.74;100.00;101763.50;4987523;28;20426;-59
2021/07/02 03:09:17;;;;;;;12.40;8.38;;;;;;;13.75;100.00;101765.25;4990980;28;20041;-59
2021/07/02 03:11:44;;;;;;;13.33;8.17;;;;;;;13.77;100.00;101766.03;4995160;28;20021;-59
2021/07/02 03:14:11;;;;;;;14.87;9.57;;;;;;;13.77;100.00;101760.69;4991377;28;20280;-60
2021/07/02 03:16:36;;;;;;;;;;;;;;;13.79;100.00;101762.41;4988743;28;20621;-60
2021/07/02 03:19:01;;;;;;;14.33;9.63;;;;;;;13.79;100.00;101765.09;4984922;28;20172;-60
2021/07/02 03:21:27;;;;;;;18.27;10.20;;;;;;;13.77;100.00;101762.47;4991637;28;20034;-60
2021/07/02 03:23:52;;;;;;;13.05;8.90;;;;;;;13.80;100.00;101769.50;4995121;28;20080;-60
2021/07/02 03:26:17;;;;;;;15.43;9.90;;;;;;;13.81;100.00;101765.88;4985531;28;20812;-60
2021/07/02 03:28:43;;;;;;;14.52;9.90;;;;;;;13.81;100.00;101766.75;4997765;28;20105;-60
2021/07/02 03:31:09;;;;;;;16.98;10.43;;;;;;;13.81;100.00;101771.22;4987770;28;20470;-59
2021/07/02 03:33:34;;;;;;;15.98;10.35;;;;;;;13.82;100.00;101767.59;4989195;28;20035;-59
2021/07/02 03:35:59;;;;;;;14.50;9.45;;;;;;;13.82;100.00;101762.25;4986841;28;20149;-59
2021/07/02 03:38:25;;;;;;;19.42;10.30;;;;;;;13.82;100.00;101770.28;4987918;28;20050;-59
2021/07/02 03:40:50;;;;;;;15.57;9.50;;;;;;;13.83;100.00;101764.00;4989360;28;20415;-59
2021/07/02 03:43:17;;;;;;;14.43;9.13;;;;;;;13.83;100.00;101769.34;4985170;28;20040;-59
2021/07/02 03:45:42;;;;;;;17.30;10.23;;;;;;;13.83;100.00;101769.34;4989249;28;20028;-60
2021/07/02 03:48:08;;;;;;;13.07;9.10;;;;;;;13.84;100.00;101777.31;4984245;28;20309;-59
2021/07/02 03:50:33;;;;;;;13.73;8.48;;;;;;;13.84;100.00;101774.63;4993115;28;20036;-60
2021/07/02 03:52:58;;;;;;;15.30;9.45;;;;;;;13.84;100.00;101777.31;4988138;28;20030;-60
2021/07/02 03:55:24;;;;;;;13.77;9.13;;;;;;;13.86;100.00;101785.31;4987782;28;20903;-59
2021/07/02 03:57:49;;;;;;;16.20;8.98;;;;;;;13.88;100.00;101786.06;4988085;28;20026;-60
2021/07/02 04:00:15;;;;;;;15.38;9.32;;;;;;;13.88;100.00;101783.41;4988407;28;20153;-59
2021/07/02 04:02:40;;;;;;;15.00;8.85;;;;;;;13.89;100.00;101779.78;4992098;28;20430;-60
2021/07/02 04:05:06;;;;;;;12.57;8.05;;;;;;;13.89;100.00;101782.44;4985377;28;20149;-60
2021/07/02 04:07:32;;;;;;;14.48;7.97;;;;;;;13.90;100.00;101776.16;4994577;28;20056;-59
2021/07/02 04:09:57;;;;;;;11.80;7.55;;;;;;;13.92;100.00;101785.84;4987739;28;20026;-59
2021/07/02 04:12:23;;;;;;;15.15;8.27;;;;;;;13.94;100.00;101783.13;4986699;28;20090;-59
2021/07/02 04:14:48;;;;;;;15.00;7.72;;;;;;;13.95;100.00;101778.59;4993334;28;20061;-59
2021/07/02 04:17:13;;;;;;;12.07;7.70;;;;;;;13.95;100.00;101778.59;4982961;28;20864;-59
2021/07/02 04:19:39;;;;;;;14.40;7.68;;;;;;;13.94;100.00;101777.75;4995536;28;20165;-60
2021/07/02 04:22:05;;;;;;;13.38;7.10;;;;;;;13.96;100.00;101785.72;4984016;28;20116;-60
2021/07/02 04:24:30;;;;;;;12.98;7.22;;;;;;;13.96;100.00;101789.25;4989241;28;20036;-60
2021/07/02 04:26:56;;;;;;;12.52;6.63;;;;;;;13.99;100.00;101786.44;4986799;28;20116;-59
2021/07/02 04:29:22;;;;;;;8.20;5.43;;;;;;;14.01;100.00;101789.03;4987189;28;20022;-60
2021/07/02 04:31:47;;;;;;;10.35;5.63;;;;;;;14.04;100.00;101788.88;4985133;28;20028;-61
2021/07/02 04:34:12;;;;;;;9.50;5.35;;;;;;;14.05;100.00;101788.81;4988190;28;20029;-59
2021/07/02 04:36:38;;;;;;;8.10;4.82;;;;;;;14.08;100.00;101790.44;4990500;28;20454;-60
2021/07/02 04:39:04;;;;;;;11.18;4.80;;;;;;;14.10;100.00;101783.19;4984900;28;20399;-60
2021/07/02 04:41:29;;;;;;;8.73;5.00;;;;;;;14.11;100.00;101781.38;4988360;28;20049;-60
2021/07/02 04:43:54;;;;;;;10.40;5.22;;;;;;;14.12;100.00;101780.44;4986959;28;20492;-59
2021/07/02 04:46:21;;;;;;;10.70;5.30;;;;;;;14.13;100.00;101774.13;4984971;28;20029;-60
2021/07/02 04:48:46;;;;;;;8.23;5.73;;;;;;;14.15;100.00;101774.94;4994531;28;20458;-60
2021/07/02 04:51:12;;;;;;;11.15;5.90;;;;;;;14.13;100.00;101774.13;4983177;28;20285;-60
2021/07/02 04:53:37;;;;;;;8.70;6.10;;;;;;;14.15;100.00;101774.94;4995146;28;20029;-60
2021/07/02 04:56:03;;;;;;;8.70;6.03;;;;;;;14.16;100.00;101779.34;4986320;28;20091;-61
2021/07/02 04:58:28;;;;;;;9.35;5.55;;;;;;;14.17;100.00;101781.94;4984549;28;20033;-60
2021/07/02 05:00:54;;;;;;;11.38;5.88;;;;;;;14.19;100.00;101772.00;4985045;28;20049;-60
2021/07/02 05:03:20;;;;;;;9.15;6.63;;;;;;;14.24;100.00;101769.94;4987574;28;20531;-60
2021/07/02 05:05:46;;;;;;;8.60;6.10;;;;;;;14.31;100.00;101781.25;4983708;28;20030;-60
2021/07/02 05:08:11;;;;;;;7.65;5.82;;;;;;;14.33;100.00;101779.34;4989345;28;20701;-59
2021/07/02 05:10:38;;;;;;;8.32;6.03;;;;;;;14.39;100.00;101783.53;4990406;28;20052;-59
2021/07/02 05:13:03;;;;;;;10.20;6.60;;;;;;;14.41;100.00;101787.00;4984057;28;20034;-60
2021/07/02 05:15:29;;;;;;;8.48;5.93;;;;;;;14.45;100.00;101776.97;4986779;28;20970;-60
2021/07/02 05:17:55;;;;;;;8.10;5.32;;;;;;;14.44;100.00;101786.88;4984287;28;20379;-60
2021/07/02 05:20:20;;;;;;;8.90;6.00;;;;;;;14.39;100.00;101783.53;4992164;28;20029;-59
2021/07/02 05:22:46;;;;;;;9.00;6.30;;;;;;;14.36;100.00;101783.69;4984467;28;20038;-59
2021/07/02 05:25:11;;;;;;;8.60;6.80;;;;;;;14.35;100.00;101785.50;4986893;28;20494;-59
2021/07/02 05:27:37;;;;;;;10.50;6.43;;;;;;;14.33;100.00;101783.84;4991972;28;20571;-59
2021/07/02 05:30:04;;;;;;;10.30;6.32;;;;;;;14.34;100.00;101788.28;4986449;28;20482;-58
2021/07/02 05:32:29;;;;;;;;;;;;;;;14.36;100.00;101786.38;4992285;28;20029;-60
2021/07/02 05:34:54;;;;;;;9.80;6.40;;;;;;;14.39;100.00;101784.41;4986860;28;20387;-59
2021/07/02 05:37:19;;;;;;;11.73;6.88;;;;;;;14.39;100.00;101784.41;4983641;28;20479;-60
2021/07/02 05:39:45;;;;;;;8.90;6.45;;;;;;;14.40;100.00;101785.25;4988184;28;20037;-59
2021/07/02 05:42:10;;;;;;;8.15;6.35;;;;;;;14.42;100.00;101794.13;4986088;28;20040;-59
2021/07/02 05:44:35;;;;;;;11.55;7.72;;;;;;;14.44;100.00;101796.72;4990258;28;20549;-59
2021/07/02 05:47:04;;;;;;;9.82;6.40;;;;;;;14.44;100.00;101802.97;4977480;28;20093;-59
2021/07/02 05:49:29;;;;;;;10.67;7.00;;;;;;;14.44;100.00;101796.72;4996318;28;20030;-59
2021/07/02 05:51:54;;;;;;;9.90;7.20;;;;;;;14.49;100.00;101798.22;4983474;28;20304;-60
2021/07/02 05:54:20;;;;;;;9.70;6.90;;;;;;;14.54;100.00;101803.34;4993661;28;20064;-59
2021/07/02 05:56:46;;;;;;;10.52;7.25;;;;;;;14.59;100.00;101801.28;4979882;28;20333;-58
2021/07/02 05:59:11;;;;;;;14.68;8.40;;;;;;;14.63;100.00;101802.00;4986539;28;20369;-59
2021/07/02 06:01:37;;;;;;;12.15;8.43;;;;;;;14.72;100.00;101797.03;4988181;28;20121;-60
2021/07/02 06:04:03;;;;;;;11.57;7.38;;;;;;;14.82;100.00;101801.94;4978606;28;20022;-59
2021/07/02 06:06:28;;;;;;;14.70;8.45;;;;;;;14.94;100.00;101803.09;4992845;28;20113;-59
2021/07/02 06:08:55;;;;;;;12.68;7.72;;;;;;;15.07;99.76;101801.47;4983183;28;20030;-59
2021/07/02 06:11:20;;;;;;;12.70;7.37;;;;;;;15.13;98.90;101802.97;4990213;28;20033;-59
2021/07/02 06:13:46;;;;;;;11.00;7.57;;;;;;;15.14;99.22;101807.41;4990769;28;20335;-59
2021/07/02 06:16:11;;;;;;;12.65;7.72;;;;;;;15.17;98.38;101809.94;4988224;28;20808;-59
2021/07/02 06:18:38;;;;;;;10.77;7.75;;;;;;;15.24;98.74;101808.63;4992593;28;20033;-60
2021/07/02 06:21:03;;;;;;;14.67;8.13;;;;;;;15.30;98.69;101810.97;4987173;28;20127;-60
2021/07/02 06:23:34;;;;;;;12.65;7.65;;;;;;;15.38;98.73;101813.22;4992037;28;20904;-60
2021/07/02 06:26:00;;;;;;;11.47;7.43;;;;;;;15.45;98.41;101808.41;4985252;28;20140;-60
2021/07/02 06:28:28;;;;;;;11.87;6.90;;;;;;;15.48;98.42;101816.28;4993721;28;20844;-59
2021/07/02 06:30:53;;;;;;;12.77;7.30;;;;;;;15.54;98.22;101817.75;4988431;28;20324;-59
2021/07/02 06:33:19;;;;;;;12.88;8.02;;;;;;;15.56;98.49;101814.03;4989906;28;20346;-59
2021/07/02 06:35:44;;;;;;;9.55;7.22;;;;;;;15.71;97.77;101830.28;4994157;28;20037;-60
2021/07/02 06:38:10;;;;;;;9.02;6.70;;;;;;;15.81;97.39;101826.09;4984930;28;20113;-60
2021/07/02 06:40:35;;;;;;;8.65;6.88;;;;;;;15.80;97.39;101833.31;4991309;28;20033;-60
2021/07/02 06:43:01;;;;;;;9.48;7.45;;;;;;;15.81;96.46;101823.41;4988848;28;20029;-59
2021/07/02 06:45:26;;;;;;;13.55;7.38;;;;;;;15.79;96.54;101836.06;4994824;28;20045;-60
2021/07/02 06:47:59;;;;;;;8.85;6.88;;;;;;;15.75;97.26;101834.53;4984215;28;20029;-60
2021/07/02 06:50:30;;;;;;;13.13;7.87;;;;;;;15.75;97.79;101835.38;4993881;28;20105;-60
2021/07/02 06:52:56;;;;;;;10.60;7.30;;;;;;;15.80;97.11;101837.81;4990677;28;20291;-60
2021/07/02 06:55:21;;;;;;;10.43;7.15;;;;;;;15.81;96.55;101837.75;4986411;28;20281;-59
2021/07/02 06:57:47;;;;;;;10.80;7.13;;;;;;;15.83;96.95;101829.59;4989334;28;21507;-60
2021/07/02 07:00:13;;;;;;;10.10;6.40;;;;;;;15.92;96.35;101836.28;4987048;28;20564;-60
2021/07/02 07:02:38;;;;;;;7.63;6.55;;;;;;;16.07;96.80;101834.53;4995477;28;20416;-60
2021/07/02 07:05:04;;;;;;;10.15;6.50;;;;;;;16.44;95.81;101841.31;4982510;28;20427;-60
2021/07/02 07:07:29;;;;;;;10.43;7.05;;;;;;;16.74;92.61;101836.88;4987747;28;20137;-60
2021/07/02 07:09:55;;;;;;;8.63;6.63;;;;;;;16.81;92.05;101845.47;4982969;28;20045;-60
2021/07/02 07:12:20;;;;;;;11.13;6.65;;;;;;;16.84;92.76;101846.13;4987036;28;20483;-58
2021/07/02 07:14:47;;;;;;;10.38;7.00;;;;;;;16.83;92.83;101852.47;4991960;28;20553;-59
2021/07/02 07:17:12;;;;;;;10.30;7.23;;;;;;;16.84;93.06;101853.34;4981602;28;20060;-59
2021/07/02 07:19:38;;;;;;;13.15;7.22;;;;;;;16.97;92.27;101846.28;4992963;28;20402;-59
2021/07/02 07:22:03;;;;;;;10.70;8.00;;;;;;;17.24;91.17;101843.66;4980243;28;20026;-59
2021/07/02 07:24:29;;;;;;;8.00;6.65;;;;;;;17.63;89.83;101843.06;4985641;28;20112;-59
2021/07/02 07:26:55;;;;;;;11.70;7.50;;;;;;;17.98;88.01;101845.34;4989510;28;20903;-59
2021/07/02 07:29:21;;;;;;;9.93;7.20;;;;;;;18.21;85.75;101848.34;4979034;28;20030;-59
2021/07/02 07:31:47;;;;;;;17.15;7.45;;;;;;;18.39;86.37;101857.03;4981849;28;20315;-59
2021/07/02 07:34:21;;;;;;;10.82;6.97;;;;;;;18.50;84.91;101847.22;4980389;28;20030;-59
2021/07/02 07:36:52;;;;;;;11.23;6.80;;;;;;;18.74;81.69;101851.03;4986055;28;20436;-59
2021/07/02 07:39:17;;;;;;;11.00;7.67;;;;;;;18.75;83.12;101852.78;4985270;28;20294;-59
2021/07/02 07:41:42;;;;;;;13.35;7.55;;;;;;;18.72;83.51;101847.59;4990592;28;20284;-59
2021/07/02 07:44:08;;;;;;;;;;;;;;;18.80;83.86;101859.59;4989401;28;20116;-60
2021/07/02 07:46:33;;;;;;;11.80;7.00;;;;;;;19.00;82.75;101857.41;4984973;28;19986;-59
2021/07/02 07:48:58;;;;;;;12.48;7.95;;;;;;;19.08;82.38;101854.13;4982366;28;20120;-59
2021/07/02 07:53:52;;;;;;;13.00;7.80;;;;;;;19.08;82.57;101862.25;4989840;28;19927;-59
2021/07/02 07:56:17;;;;;;;15.85;8.23;;;;;;;19.09;81.53;101862.13;4985049;28;20287;-59
2021/07/02 07:58:42;;;;;;;;;;;;;;;18.97;81.21;101868.41;4987012;28;20144;-59
2021/07/02 08:01:09;;;;;;;12.30;7.27;;;;;;;18.92;83.18;101865.19;4984662;28;19973;-60
2021/07/02 08:03:35;;;;;;;14.30;7.97;;;;;;;18.92;82.88;101865.19;4985826;28;20032;-60
2021/07/02 08:06:00;;;;;;;;;;;;;;;18.97;82.21;101868.41;4988448;28;20060;-60
2021/07/02 08:08:25;;;;;;;12.37;7.27;;;;;;;19.06;83.33;101869.59;4984401;28;20753;-61
2021/07/02 08:10:51;;;;;;;;;;;;;;;19.12;83.21;101861.94;4988576;28;20038;-60
2021/07/02 08:13:16;;;;;;;10.23;6.77;;;;;;;19.20;80.18;101877.59;4991040;28;20000;-60
2021/07/02 08:15:42;;;;;;;;;;;;;;;19.35;81.04;101870.25;4990994;28;20022;-61
2021/07/02 08:18:07;;;;;;;13.83;6.37;;;;;;;19.49;80.35;101873.81;4982488;28;19922;-60
2021/07/02 08:20:32;;;;;;;;;;;;;;;19.60;80.45;101879.31;4983788;28;20519;-60
2021/07/02 08:22:57;;;;;;;8.13;5.60;;;;;;;19.83;78.33;101883.03;4984956;28;20550;-61
2021/07/02 08:25:23;;;;;;;11.23;6.78;;;;;;;19.86;78.24;101890.97;4984114;28;20069;-60
2021/07/02 08:30:34;;;;;;;9.53;6.00;;;;;;;20.42;77.60;101888.69;4994489;28;19921;-60
2021/07/02 08:32:59;;;;;;;;;;;;;;;20.80;75.04;101885.81;4986899;28;20040;-60
2021/07/02 08:35:24;;;;;;;10.93;6.27;;;;;;;20.59;74.17;101885.56;4975818;28;20029;-60
2021/07/02 08:37:52;;;;;;;;;;;;;;;20.15;75.41;101893.38;4991574;28;20020;-61
2021/07/02 08:40:18;;;;;;;12.23;6.03;;;;;;;19.83;77.00;101891.16;4983600;28;20445;-60
2021/07/02 08:42:43;;;;;;;;;;;;;;;19.71;76.22;101892.91;4991375;28;20095;-61
2021/07/02 08:45:09;;;;;;;7.40;5.10;;;;;;;19.72;74.96;101900.06;4991317;28;19920;-60
2021/07/02 08:47:34;;;;;;;6.60;5.10;;;;;;;19.86;75.42;101904.53;4980526;28;20034;-60
2021/07/02 08:50:00;;;;;;;;;;;;;;;19.94;75.77;101893.09;4994493;28;20495;-60
2021/07/02 08:52:25;;;;;;;5.37;4.47;;;;;;;19.99;75.25;101901.78;4984935;28;19961;-61
2021/07/02 08:54:50;;;;;;;;;;;;;;;20.09;74.78;101900.09;4995546;28;20108;-61
2021/07/02 08:57:16;;;;;;;7.30;4.97;;;;;;;20.08;74.97;101914.63;4978398;28;19917;-60
2021/07/02 08:59:41;;;;;;;;;;;;;;;19.88;75.91;101909.81;4987279;28;20056;-60
2021/07/02 09:02:26;;;;;;;8.80;5.50;;;;;;;19.63;76.77;101918.81;4986846;28;19932;-61
2021/07/02 09:04:51;;;;;;;9.93;6.50;;;;;;;19.29;78.35;101919.41;4984047;28;20543;-61
2021/07/02 09:07:18;;;;;;;;;;;;;;;19.06;78.87;101921.88;4987977;28;20044;-61
2021/07/02 09:10:06;;;;;;;12.10;6.70;;;;;;;19.03;79.39;101927.47;4978630;28;19921;-59
2021/07/02 09:12:39;;;;;;;12.70;8.07;;;;;;;19.10;81.05;101923.38;4986731;28;20557;-60
2021/07/02 09:15:09;;;;;;;17.13;9.73;;;;;;;19.21;80.66;101919.06;4976186;28;20065;-61
2021/07/02 09:17:37;;;;;;;14.47;9.13;;;;;;;19.36;78.44;101923.41;4977131;28;20056;-60
2021/07/02 09:20:11;;;;;;;16.20;10.23;;;;;;;19.48;79.83;101918.97;4973026;28;20028;-60
2021/07/02 09:22:57;;;;;;;16.03;10.30;;;;;;;19.61;79.31;101924.38;4982072;28;20137;-60
2021/07/02 09:25:31;;;;;;;16.67;9.98;;;;;;;19.68;77.58;101928.34;4983892;28;20518;-59
2021/07/02 09:28:05;;;;;;;19.97;10.77;;;;;;;19.87;75.65;101929.75;4985709;28;20038;-60
2021/07/02 09:30:33;;;;;;;22.63;11.30;;;;;;;19.86;75.55;101925.31;4984163;28;20038;-60
2021/07/02 09:33:15;;;;;;;18.13;10.27;;;;;;;19.87;76.89;101922.50;4980288;28;20616;-59
2021/07/02 09:35:46;;;;;;;16.57;10.87;;;;;;;20.11;76.26;101926.22;4983723;28;20523;-59
2021/07/02 09:38:12;;;;;;;12.60;8.53;;;;;;;20.34;73.83;101936.22;4984400;28;20083;-60
2021/07/02 09:40:38;;;;;;;14.60;10.00;;;;;;;20.46;74.52;101941.72;4984920;28;20029;-60
2021/07/02 09:43:07;;;;;;;16.00;9.10;;;;;;;20.55;74.21;101940.97;4983548;28;20057;-61
2021/07/02 09:45:34;;;;;;;14.43;8.80;;;;;;;20.63;72.57;101935.84;4980480;28;20018;-61
2021/07/02 09:48:08;;;;;;;15.10;9.73;;;;;;;20.71;72.81;101938.84;4983244;28;20045;-60
2021/07/02 09:50:33;;;;;;;13.07;8.87;;;;;;;20.86;71.76;101942.28;4990044;28;20053;-59
2021/07/02 09:53:10;;;;;;;14.97;8.63;;;;;;;21.25;70.24;101952.00;4990025;28;20495;-61
2021/07/02 09:55:53;;;;;;;12.60;8.30;;;;;;;21.70;67.87;101941.19;4987865;28;20040;-61
2021/07/02 09:58:20;;;;;;;12.37;8.57;;;;;;;22.14;66.50;101938.56;4986296;28;20030;-61
2021/07/02 10:00:57;;;;;;;12.57;7.77;;;;;;;22.23;65.88;101936.94;4981099;28;20123;-60
2021/07/02 10:03:27;;;;;;;10.77;8.05;;;;;;;22.16;65.96;101935.72;4995409;28;20111;-60
2021/07/02 10:05:57;;;;;;;11.33;7.70;;;;;;;22.19;66.11;101951.75;4985693;28;20053;-61
2021/07/02 10:08:25;;;;;;;13.77;8.63;;;;;;;22.23;64.95;101951.38;4988786;28;20040;-60
2021/07/02 10:10:52;;;;;;;13.93;8.97;;;;;;;22.23;65.87;101948.66;4985109;28;20033;-60
2021/07/02 10:13:20;;;;;;;15.57;8.77;;;;;;;22.44;66.82;101956.06;4988045;28;20037;-60
2021/07/02 10:15:45;;;;;;;15.37;9.47;;;;;;;22.42;66.34;101961.59;4986287;28;20034;-61
2021/07/02 10:18:14;;;;;;;15.83;9.93;;;;;;;22.40;64.38;101955.47;4988545;28;20129;-61
2021/07/02 10:20:41;;;;;;;16.30;9.30;;;;;;;22.23;64.43;101964.97;4989064;28;20665;-61
2021/07/02 10:23:08;;;;;;;15.23;9.20;;;;;;;22.19;66.81;101958.06;4989520;28;20204;-61
2021/07/02 10:25:33;;;;;;;13.83;8.70;;;;;;;22.14;65.43;101961.16;4983445;28;20080;-61
2021/07/02 10:27:59;;;;;;;17.10;9.53;;;;;;;22.08;68.67;101966.22;4978801;28;20031;-61
2021/07/02 10:30:25;;;;;;;14.43;9.50;;;;;;;22.17;66.20;101964.63;4987815;28;20033;-62
2021/07/02 10:32:55;;;;;;;14.53;9.27;;;;;;;22.18;66.10;101972.63;4987686;28;20053;-60
2021/07/02 10:35:21;;;;;;;14.83;9.60;;;;;;;22.11;64.60;101964.13;4969215;28;20050;-61
2021/07/02 10:37:48;;;;;;;14.90;9.40;;;;;;;22.25;66.84;101963.00;4982090;28;20522;-61
2021/07/02 10:40:33;;;;;;;13.80;9.13;;;;;;;22.46;64.10;101975.81;4984573;28;20037;-60
2021/07/02 10:43:10;;;;;;;14.93;9.00;;;;;;;22.56;63.40;101971.34;4992055;28;20053;-60
2021/07/02 10:45:37;;;;;;;16.57;9.13;;;;;;;22.47;66.41;101963.09;4992053;28;20071;-60
2021/07/02 10:48:03;;;;;;;18.43;10.00;;;;;;;22.22;64.00;101963.22;4994573;28;20037;-61
2021/07/02 10:50:40;;;;;;;17.13;10.83;;;;;;;22.14;64.67;101963.88;4987787;28;20657;-60
2021/07/02 10:53:28;;;;;;;11.93;9.47;;;;;;;22.20;65.47;101965.22;4988561;28;20042;-59
2021/07/02 10:55:54;;;;;;;16.10;10.30;;;;;;;22.38;63.17;101971.00;4980920;28;20029;-59
2021/07/02 10:58:21;;;;;;;14.17;9.67;;;;;;;22.32;65.92;101963.34;4989187;28;20070;-60
2021/07/02 11:01:10;;;;;;;14.40;9.33;;;;;;;22.20;64.08;101970.66;4989491;28;20034;-59
2021/07/02 11:03:35;;;;;;;14.43;9.33;;;;;;;22.36;63.72;101974.84;4988375;28;20133;-59
2021/07/02 11:06:34;;;;;;;12.10;9.00;;;;;;;22.46;62.24;101967.66;4987263;28;20419;-60
2021/07/02 11:09:00;;;;;;;14.77;8.90;;;;;;;22.88;64.66;101964.16;4990444;28;20372;-61
2021/07/02 11:12:04;;;;;;;13.17;8.83;;;;;;;23.24;61.33;101967.47;4989669;28;20119;-61
2021/07/02 11:14:29;;;;;;;11.37;7.97;;;;;;;23.17;56.72;101963.53;4983186;28;20034;-61
2021/07/02 11:17:33;;;;;;;11.90;8.57;;;;;;;23.12;59.61;101958.47;4991462;28;20026;-62
2021/07/02 11:20:12;;;;;;;11.23;7.43;;;;;;;23.20;57.83;101964.16;4983339;28;20034;-61
2021/07/02 11:22:52;;;;;;;11.33;8.17;;;;;;;22.95;57.58;101964.50;4983378;28;20022;-62
2021/07/02 11:25:28;;;;;;;13.30;8.80;;;;;;;23.16;59.00;101962.66;4986844;28;20509;-60